• Join FlightAware (Why Join?)
  • Login
  • US Flag 
10:14PM EST


 

Airport Tracker/Info


-or-


 

Live Flight TrackerFlight Track Log ✈ QXE2633 ✈ 18-Jan-2014 ✈ KPDX - KSMF

Flight Track Log - Related Links

Times and Time Zones

All times are in EST time to prevent confusion due to time zone crossing. See the QXE2633 flight status page for this flight to view local times or setup timezone preferences in your user account.

Time Position Orientation Groundspeed Altitude Reporting Facility
EST Latitude Longitude Course Direction KTS MPH feet Rate Location/Type
06:37PM 45.0010 -122.5019 172° South  Level Estimated
06:38PM 44.9196 -122.4696 164° South  Level FlightAware Approximate
06:39PM 44.8356 -122.4565 164° South  Level Estimated
06:40PM 44.7516 -122.4435 170° South  Level Estimated
06:41PM 44.6698 -122.4140 166° South  Level FlightAware Approximate
06:42PM 44.5879 -122.3847 166° South  Level FlightAware Approximate
06:43PM 44.5060 -122.3554 166° South  Level FlightAware Approximate
06:44PM 44.4241 -122.3262 166° South  Level FlightAware Approximate
06:45PM 44.3422 -122.2971 166° South  Level FlightAware Approximate
06:46PM 44.2581 -122.2856 170° South  Level Estimated
06:47PM 44.1762 -122.2568 166° South  Level FlightAware Approximate
06:48PM 44.0942 -122.2280 166° South  Level FlightAware Approximate
06:49PM 44.0101 -122.2172 170° South  Level Estimated
06:50PM 43.9274 -122.1930 168° South  Level FlightAware Approximate
06:51PM 43.8447 -122.1688 168° South  Level FlightAware Approximate
06:52PM 43.7621 -122.1446 168° South  Level FlightAware Approximate
06:53PM 43.6794 -122.1206 168° South  Level FlightAware Approximate
06:54PM 43.5967 -122.0966 168° South  Level FlightAware Approximate
06:55PM 43.5140 -122.0726 168° South  Level FlightAware Approximate
06:56PM 43.4313 -122.0488 168° South  Level FlightAware Approximate
06:57PM 43.3485 -122.0250 168° South  Level FlightAware Approximate
06:58PM 43.2643 -122.0165 170° South  Level Estimated
06:59PM 43.1814 -121.9939 169° South  Level FlightAware Approximate
07:00PM 43.0985 -121.9712 169° South  Level FlightAware Approximate
07:01PM 43.0156 -121.9487 169° South  Level FlightAware Approximate
07:02PM 42.9328 -121.9262 169° South  Level FlightAware Approximate
07:03PM 42.8499 -121.9037 169° South  Level FlightAware Approximate
07:04PM 42.7670 -121.8814 169° South  Level FlightAware Approximate
07:05PM 42.6862 -121.8575 168° South  Level FlightAware Approximate
07:06PM 42.6054 -121.8337 168° South  Level FlightAware Approximate
07:07PM 42.5246 -121.8100 168° South  Level FlightAware Approximate
07:08PM 42.4420 -121.8050 170° South  Level Estimated
07:09PM 42.3613 -121.7805 167° South  Level FlightAware Approximate
07:10PM 42.2806 -121.7561 167° South  Level FlightAware Approximate
07:11PM 42.2005 -121.7319 167° South  Level FlightAware Approximate
07:12PM 42.1194 -121.7167 180° South  Level FlightAware Approximate
07:13PM 42.0373 -121.7167 180° South  Level FlightAware Approximate
07:14PM 41.9562 -121.7167 180° South  Level FlightAware Approximate
07:15PM 41.8751 -121.7167 180° South  Level FlightAware Approximate
07:16PM 41.7941 -121.7167 180° South  Level FlightAware Approximate
07:17PM 41.7130 -121.7167 180° South  Level FlightAware Approximate
07:18PM 41.6319 -121.7167 180° South  Level FlightAware Approximate
07:19PM 41.5508 -121.7167 180° South  Level FlightAware Approximate
07:20PM 41.4697 -121.7167 180° South  Level FlightAware Approximate
07:21PM 41.3887 -121.7167 180° South  Level FlightAware Approximate
07:22PM 41.3076 -121.7167 180° South  Level FlightAware Approximate
07:23PM 41.2265 -121.7167 180° South  Level FlightAware Approximate
07:24PM 41.1454 -121.7167 180° South  Level FlightAware Approximate
07:25PM 41.0644 -121.7167 180° South  Level FlightAware Approximate
07:26PM 40.9833 -121.7097 176° South  Level FlightAware Approximate
07:27PM 40.9021 -121.7027 176° South  Level FlightAware Approximate
07:28PM 40.8210 -121.6957 176° South  Level FlightAware Approximate
07:29PM 40.7399 -121.6888 176° South  Level FlightAware Approximate
07:30PM 40.6600 -121.6820 176° South  Level FlightAware Approximate
07:31PM 40.5801 -121.6751 176° South  Level FlightAware Approximate
07:32PM 40.5001 -121.6684 176° South  Level FlightAware Approximate
07:33PM 40.4202 -121.6616 176° South  Level FlightAware Approximate
07:34PM 40.3403 -121.6548 176° South  Level FlightAware Approximate
07:35PM 40.2602 -121.6500 180° South  Level FlightAware Approximate
07:36PM 40.1791 -121.6460 178° South  Level FlightAware Approximate
07:37PM 40.0981 -121.6420 178° South  Level FlightAware Approximate
07:38PM 40.0172 -121.6379 178° South  Level FlightAware Approximate
07:39PM 39.9355 -121.6339 178° South  Level FlightAware Approximate
07:40PM 39.8539 -121.6299 178° South  Level FlightAware Approximate
07:41PM 39.7723 -121.6259 178° South  Level FlightAware Approximate
07:42PM 39.6907 -121.6219 178° South  Level FlightAware Approximate
07:43PM 39.6091 -121.6179 178° South  Level FlightAware Approximate
07:44PM 39.5274 -121.6167 180° South  Level FlightAware Approximate
07:45PM 39.4404 -121.6124 176° South  Level FlightAware Approximate
07:46PM 39.3535 -121.6037 176° South  Level FlightAware Approximate
07:47PM 39.2665 -121.6000 180° South  Level FlightAware Approximate
07:48PM 39.1794 -121.6000 180° South  Level FlightAware Approximate
07:49PM 39.0924 -121.5989 174° South  Level FlightAware Approximate
07:50PM 39.0058 -121.5865 174° South  Level FlightAware Approximate
07:51PM 38.9188 -121.5833 180° South  Level FlightAware Approximate
07:52PM 38.8317 -121.5833 180° South  Level FlightAware Approximate
07:53PM 38.7446 -121.5833 180° South  Level FlightAware Approximate
07:54PM 38.6954 -121.5908 180° South  Level Estimated
07:55PM 38.6954 -121.5908 180° South  Level Estimated
07:56PM 38.6954 -121.5908 180° South  Level Estimated
07:57PM 38.6954 -121.5908 180° South  Level Estimated
07:58PM 38.6954 -121.5908 180° South  Level Estimated
07:59PM 38.6954 -121.5908 180° South  Level Estimated
08:00PM 38.6954 -121.5908 270° West  Level Estimated
08:01PM 38.6954 -121.5908 270° West  Level Estimated
08:02PM 38.6954 -121.5908 270° West  Level Estimated
08:03PM 38.6954 -121.5908 270° West  Level Estimated
08:04PM 38.6954 -121.5908 270° West  Level Estimated
08:05PM 38.6954 -121.5908 270° West  Level Estimated
08:06PM 38.6954 -121.5908 270° West  Level Estimated
08:07PM 38.6954 -121.5908 270° West  Level Estimated
08:08PM 38.6954 -121.5908 270° West  Level Estimated
08:09PM 38.6954 -121.5908 270° West  Level Estimated